Time;durP1;ratioP1;P1;durP2;ratioP2;P2;SDS_P1;SDS_P2;PMS_P1;PMS_P2;Temp;Humidity;BMP_temperature;BMP_pressure;BME280_temperature;BME280_humidity;BME280_pressure;Samples;Min_cycle;Max_cycle;Signal;HPM_P1;HPM_P2
2022/01/23 00:01:54;;;;;;;28.98;16.17;;;;;;;;;;5076467;28;20093;-88
2022/01/23 00:04:20;;;;;;;33.83;17.98;;;;;;;;;;5076663;28;20035;-81
2022/01/23 00:06:46;;;;;;;28.73;16.85;;;;;;;;;;5074698;28;20119;-84
2022/01/23 00:09:14;;;;;;;27.30;17.17;;;;;;;;;;5080052;28;20020;-80
2022/01/23 00:11:47;;;;;;;28.60;16.85;;;;;;;;;;5078346;28;20029;-85
2022/01/23 00:20:05;;;;;;;22.95;14.95;;;;;;;;;;5055750;28;20128;-83
2022/01/23 00:22:47;;;;;;;;;;;;;;;;;;5072075;28;20040;-83
2022/01/23 00:31:01;;;;;;;26.00;15.77;;;;;;;;;;5020513;28;20037;-86
2022/01/23 00:33:28;;;;;;;26.50;16.15;;;;;;;;;;5021869;28;20052;-86
2022/01/23 00:35:54;;;;;;;27.20;16.50;;;;;;;;;;5039253;28;20078;-83
2022/01/23 00:38:19;;;;;;;28.60;17.60;;;;;;;;;;5077075;28;20442;-88
2022/01/23 00:40:46;;;;;;;28.95;16.50;;;;;;;;;;5076128;28;20164;-83
2022/01/23 00:43:25;;;;;;;26.83;16.98;;;;;;;;;;5076858;28;20032;-87
2022/01/23 00:45:53;;;;;;;25.67;16.73;;;;;;;;;;5072366;28;20048;-80
2022/01/23 00:48:24;;;;;;;29.08;16.40;;;;;;;;;;5073520;28;20470;-81
2022/01/23 00:50:50;;;;;;;25.25;15.48;;;;;;;;;;5080288;28;20065;-86
2022/01/23 00:53:15;;;;;;;26.27;16.33;;;;;;;;;;5074639;28;20425;-88
2022/01/23 00:55:43;;;;;;;27.90;16.67;;;;;;;;;;5077845;28;20506;-82
2022/01/23 00:58:11;;;;;;;27.98;16.80;;;;;;;;;;5071702;28;20430;-84
2022/01/23 01:00:38;;;;;;;28.65;16.40;;;;;;;;;;5075452;28;20386;-87
2022/01/23 01:03:05;;;;;;;27.88;15.70;;;;;;;;;;5072464;28;20115;-86
2022/01/23 01:05:31;;;;;;;27.58;16.60;;;;;;;;;;5079945;28;20036;-80
2022/01/23 01:08:02;;;;;;;27.48;15.40;;;;;;;;;;5077174;28;20020;-85
2022/01/23 01:11:00;;;;;;;29.75;16.55;;;;;;;;;;5074925;28;20082;-87
2022/01/23 01:13:15;;;;;;;25.08;15.75;;;;;;;;;;5080821;28;20124;-85
2022/01/23 01:32:07;;;;;;;26.65;16.52;;;;;;;;;;5073505;28;20085;-86
2022/01/23 01:34:41;;;;;;;26.88;15.55;;;;;;;;;;5078495;28;20040;-86
2022/01/23 01:37:09;;;;;;;28.10;16.23;;;;;;;;;;5071456;28;20032;-83
2022/01/23 01:39:34;;;;;;;24.27;15.63;;;;;;;;;;5077394;28;20458;-83
2022/01/23 01:42:00;;;;;;;26.90;15.63;;;;;;;;;;5075745;28;20036;-86
2022/01/23 01:44:25;;;;;;;25.42;15.05;;;;;;;;;;5076079;28;20376;-84
2022/01/23 01:46:51;;;;;;;24.63;15.40;;;;;;;;;;5073351;28;20036;-88
2022/01/23 01:49:27;;;;;;;24.33;15.02;;;;;;;;;;5072913;28;20440;-83
2022/01/23 01:51:54;;;;;;;25.05;14.80;;;;;;;;;;5073731;28;20841;-84
2022/01/23 01:54:22;;;;;;;28.77;14.68;;;;;;;;;;5077801;28;20032;-80
2022/01/23 01:57:02;;;;;;;25.92;16.35;;;;;;;;;;5073064;28;20506;-83
2022/01/23 01:59:47;;;;;;;29.08;15.80;;;;;;;;;;5074458;28;20020;-85
2022/01/23 02:10:33;;;;;;;28.38;15.52;;;;;;;;;;5076513;28;20035;-84
2022/01/23 02:13:08;;;;;;;27.15;15.35;;;;;;;;;;5074745;28;20085;-86
2022/01/23 02:51:58;;;;;;;26.70;15.52;;;;;;;;;;5084882;28;20040;-88
2022/01/23 02:54:43;;;;;;;27.48;15.60;;;;;;;;;;5083116;28;20491;-86
2022/01/23 02:57:10;;;;;;;26.55;15.27;;;;;;;;;;5080967;28;20430;-81
2022/01/23 02:59:38;;;;;;;25.17;15.40;;;;;;;;;;5072658;28;20486;-80
2022/01/23 03:04:36;;;;;;;23.95;14.32;;;;;;;;;;5076713;28;20027;-85
2022/01/23 03:10:00;;;;;;;23.15;14.13;;;;;;;;;;5079726;28;20031;-83
2022/01/23 03:15:22;;;;;;;24.50;14.15;;;;;;;;;;5079438;28;20070;-80
2022/01/23 03:28:50;;;;;;;27.70;15.00;;;;;;;;;;5080425;28;20024;-80
2022/01/23 03:31:25;;;;;;;25.83;14.82;;;;;;;;;;5076363;28;20024;-88
2022/01/23 03:33:51;;;;;;;24.38;14.25;;;;;;;;;;5076453;28;20121;-83
2022/01/23 03:36:17;;;;;;;26.60;15.57;;;;;;;;;;5070951;28;20036;-80
2022/01/23 03:38:43;;;;;;;25.92;15.05;;;;;;;;;;5076252;28;20482;-81
2022/01/23 03:41:09;;;;;;;24.77;14.85;;;;;;;;;;5077474;28;20074;-85
2022/01/23 03:43:38;;;;;;;26.70;14.95;;;;;;;;;;5080999;28;20020;-87
2022/01/23 03:46:23;;;;;;;26.75;14.50;;;;;;;;;;5081450;28;20046;-85
2022/01/23 03:51:16;;;;;;;26.27;15.05;;;;;;;;;;5077727;28;20101;-84
2022/01/23 03:53:42;;;;;;;24.05;14.15;;;;;;;;;;5076025;28;20028;-88
2022/01/23 03:56:07;;;;;;;25.65;14.20;;;;;;;;;;5078570;28;20031;-87
2022/01/23 03:58:33;;;;;;;24.92;15.85;;;;;;;;;;5072314;28;20521;-80
2022/01/23 04:00:59;;;;;;;21.92;13.25;;;;;;;;;;5075222;28;20029;-83
2022/01/23 04:03:25;;;;;;;25.08;14.35;;;;;;;;;;5076834;28;20049;-80
2022/01/23 04:05:51;;;;;;;23.80;14.35;;;;;;;;;;5079344;28;20070;-86
2022/01/23 04:08:18;;;;;;;26.23;14.70;;;;;;;;;;5077314;28;20020;-86
2022/01/23 04:10:44;;;;;;;24.67;14.27;;;;;;;;;;5081784;28;20371;-84
2022/01/23 04:13:20;;;;;;;21.77;13.68;;;;;;;;;;5075363;28;20127;-80
2022/01/23 05:01:58;;;;;;;23.77;13.40;;;;;;;;;;5094941;28;20031;-82
2022/01/23 05:04:32;;;;;;;23.85;13.70;;;;;;;;;;5083655;28;20039;-82
2022/01/23 05:07:09;;;;;;;23.98;13.70;;;;;;;;;;5095418;28;20433;-84
2022/01/23 05:09:35;;;;;;;22.15;13.25;;;;;;;;;;5088837;28;20366;-83
2022/01/23 05:12:06;;;;;;;21.70;13.02;;;;;;;;;;5101770;28;20042;-85
2022/01/23 05:14:39;;;;;;;22.23;13.32;;;;;;;;;;5085775;28;20161;-86
2022/01/23 05:17:05;;;;;;;;;;;;;;;;;;5107240;28;20030;-87
2022/01/23 05:19:32;;;;;;;22.90;12.32;;;;;;;;;;5082627;28;19963;-85
2022/01/23 05:24:41;;;;;;;21.15;12.70;;;;;;;;;;5099170;28;20174;-88
2022/01/23 05:27:12;;;;;;;26.23;14.07;;;;;;;;;;5101267;28;20046;-85
2022/01/23 05:29:38;;;;;;;23.27;12.93;;;;;;;;;;5086284;28;20457;-87
2022/01/23 05:32:04;;;;;;;24.35;13.20;;;;;;;;;;5081036;28;20035;-88
2022/01/23 05:34:30;;;;;;;22.73;13.52;;;;;;;;;;5078993;28;20104;-86
2022/01/23 05:36:56;;;;;;;23.27;13.43;;;;;;;;;;5080672;28;20119;-86
2022/01/23 05:39:24;;;;;;;21.20;13.25;;;;;;;;;;5081033;28;20035;-81
2022/01/23 05:41:54;;;;;;;22.15;13.90;;;;;;;;;;5080083;28;20071;-81
2022/01/23 05:44:20;;;;;;;26.40;13.75;;;;;;;;;;5084531;28;20201;-86
2022/01/23 05:46:46;;;;;;;21.08;12.82;;;;;;;;;;5079154;28;20176;-83
2022/01/23 05:49:11;;;;;;;21.58;13.70;;;;;;;;;;5087324;28;20131;-83
2022/01/23 05:51:37;;;;;;;23.40;13.35;;;;;;;;;;5086339;28;20024;-83
2022/01/23 05:54:02;;;;;;;23.50;13.43;;;;;;;;;;5083970;28;20024;-85
2022/01/23 05:56:34;;;;;;;23.85;14.70;;;;;;;;;;5075201;28;20034;-88
2022/01/23 05:59:00;;;;;;;22.00;13.25;;;;;;;;;;5075096;28;20081;-83
2022/01/23 06:01:26;;;;;;;25.63;13.38;;;;;;;;;;5080261;28;20083;-80
2022/01/23 06:03:51;;;;;;;23.23;13.25;;;;;;;;;;5104443;28;20023;-81
2022/01/23 06:06:16;;;;;;;22.02;13.02;;;;;;;;;;5086571;28;20039;-86
2022/01/23 06:08:43;;;;;;;21.58;13.20;;;;;;;;;;5102913;28;20027;-87
2022/01/23 06:11:08;;;;;;;24.25;13.85;;;;;;;;;;5084417;28;20104;-86
2022/01/23 06:13:34;;;;;;;24.23;13.65;;;;;;;;;;5083767;28;20077;-85
2022/01/23 06:16:00;;;;;;;23.83;13.65;;;;;;;;;;5087462;28;20136;-88
2022/01/23 06:18:26;;;;;;;20.70;12.65;;;;;;;;;;5085104;28;20118;-86
2022/01/23 06:20:51;;;;;;;23.08;13.13;;;;;;;;;;5087115;28;20127;-83
2022/01/23 06:23:17;;;;;;;20.45;12.88;;;;;;;;;;5085251;28;20031;-82
2022/01/23 06:25:44;;;;;;;22.55;13.80;;;;;;;;;;5087404;28;20677;-83
2022/01/23 06:28:11;;;;;;;22.33;13.80;;;;;;;;;;5082804;28;20031;-80
2022/01/23 06:30:38;;;;;;;22.27;13.20;;;;;;;;;;5086879;28;20054;-81
2022/01/23 06:33:05;;;;;;;20.27;12.75;;;;;;;;;;5085979;28;20026;-87
2022/01/23 06:35:30;;;;;;;20.58;12.52;;;;;;;;;;5085210;28;20513;-86
2022/01/23 06:37:56;;;;;;;21.42;12.85;;;;;;;;;;5087553;28;20016;-83
2022/01/23 06:40:21;;;;;;;21.23;13.48;;;;;;;;;;5101078;28;20031;-83
2022/01/23 06:42:47;;;;;;;24.50;13.70;;;;;;;;;;5082803;28;20024;-83
2022/01/23 06:45:12;;;;;;;21.17;12.52;;;;;;;;;;5086614;28;20111;-80
2022/01/23 06:47:58;;;;;;;24.25;14.07;;;;;;;;;;5088522;28;20012;-86
2022/01/23 06:50:24;;;;;;;20.02;12.13;;;;;;;;;;5082049;28;20031;-86
2022/01/23 06:52:50;;;;;;;21.83;12.95;;;;;;;;;;5089738;28;20036;-82
2022/01/23 06:55:17;;;;;;;23.27;13.13;;;;;;;;;;5088036;28;20035;-87
2022/01/23 06:57:43;;;;;;;23.73;13.43;;;;;;;;;;5082919;28;20024;-85
2022/01/23 07:00:09;;;;;;;21.05;13.20;;;;;;;;;;5101244;27;20035;-80
2022/01/23 07:02:34;;;;;;;22.10;13.75;;;;;;;;;;5103808;27;20028;-81
2022/01/23 07:05:00;;;;;;;25.73;14.15;;;;;;;;;;5100083;28;20039;-84
2022/01/23 07:07:25;;;;;;;22.80;13.48;;;;;;;;;;5083821;28;20019;-83
2022/01/23 07:09:50;;;;;;;22.65;13.63;;;;;;;;;;5104566;28;20123;-83
2022/01/23 07:12:16;;;;;;;23.58;13.65;;;;;;;;;;5102007;28;20032;-87
2022/01/23 07:14:41;;;;;;;19.17;12.23;;;;;;;;;;5080146;28;20070;-81
2022/01/23 07:17:09;;;;;;;22.77;13.90;;;;;;;;;;5082787;28;20397;-80
2022/01/23 07:19:34;;;;;;;23.50;12.90;;;;;;;;;;5070047;28;20058;-83
2022/01/23 07:22:00;;;;;;;21.05;12.13;;;;;;;;;;5089659;28;20023;-84
2022/01/23 07:24:26;;;;;;;22.13;13.45;;;;;;;;;;5098738;28;20169;-80
2022/01/23 07:26:53;;;;;;;21.30;13.00;;;;;;;;;;5081566;28;20028;-80
2022/01/23 07:29:19;;;;;;;19.45;12.10;;;;;;;;;;5083765;28;20020;-83
2022/01/23 07:31:59;;;;;;;20.70;12.75;;;;;;;;;;5084813;28;20039;-81
2022/01/23 07:34:26;;;;;;;22.40;12.38;;;;;;;;;;5077528;28;20047;-87
2022/01/23 07:36:51;;;;;;;19.85;12.52;;;;;;;;;;5075950;28;20426;-85
2022/01/23 07:39:17;;;;;;;22.48;13.40;;;;;;;;;;5073228;28;20042;-87
2022/01/23 07:41:42;;;;;;;24.20;13.77;;;;;;;;;;5069039;28;20386;-86
2022/01/23 07:44:07;;;;;;;24.15;13.77;;;;;;;;;;5069965;28;20029;-83
2022/01/23 07:46:33;;;;;;;20.70;12.65;;;;;;;;;;5071919;28;20036;-86
2022/01/23 07:48:59;;;;;;;21.02;13.25;;;;;;;;;;5072095;28;20019;-83
2022/01/23 07:51:24;;;;;;;21.85;13.55;;;;;;;;;;5073715;28;20462;-87
2022/01/23 07:53:50;;;;;;;27.27;14.73;;;;;;;;;;5063192;28;20035;-84
2022/01/23 07:56:15;;;;;;;21.25;12.18;;;;;;;;;;5067853;28;20035;-86
2022/01/23 07:58:41;;;;;;;21.85;12.75;;;;;;;;;;5068494;28;20562;-85
2022/01/23 08:01:07;;;;;;;22.92;13.13;;;;;;;;;;5072452;28;20371;-86
2022/01/23 08:03:32;;;;;;;21.67;13.20;;;;;;;;;;5074622;28;20060;-81
2022/01/23 08:05:58;;;;;;;25.23;14.50;;;;;;;;;;5071055;28;20107;-84
2022/01/23 08:08:23;;;;;;;23.92;14.07;;;;;;;;;;5065785;28;20560;-85
2022/01/23 08:10:49;;;;;;;24.52;14.20;;;;;;;;;;5081105;28;20076;-85
2022/01/23 08:13:14;;;;;;;22.88;14.23;;;;;;;;;;5063375;28;20038;-83
2022/01/23 08:15:40;;;;;;;24.85;14.57;;;;;;;;;;5091858;28;20032;-87
2022/01/23 08:18:07;;;;;;;23.55;14.13;;;;;;;;;;5089898;28;20493;-85
2022/01/23 08:20:36;;;;;;;24.58;14.55;;;;;;;;;;5073126;28;20482;-87
2022/01/23 08:23:03;;;;;;;25.60;14.38;;;;;;;;;;5071395;28;20551;-83
2022/01/23 08:25:30;;;;;;;24.98;15.02;;;;;;;;;;5079069;28;20085;-85
2022/01/23 08:27:56;;;;;;;23.02;13.65;;;;;;;;;;5079022;28;20028;-85
2022/01/23 08:30:22;;;;;;;26.13;15.10;;;;;;;;;;5081128;28;20038;-86
2022/01/23 08:32:47;;;;;;;23.15;13.98;;;;;;;;;;5070562;28;20068;-84
2022/01/23 08:35:13;;;;;;;24.83;15.13;;;;;;;;;;5096874;28;20111;-87
2022/01/23 08:37:38;;;;;;;23.35;13.77;;;;;;;;;;5085378;28;20019;-82
2022/01/23 08:40:16;;;;;;;21.92;13.45;;;;;;;;;;5085681;28;20065;-81
2022/01/23 08:42:41;;;;;;;23.73;14.13;;;;;;;;;;5084087;28;20508;-81
2022/01/23 08:45:07;;;;;;;18.48;11.57;;;;;;;;;;5079071;28;20103;-81
2022/01/23 08:47:35;;;;;;;26.83;14.13;;;;;;;;;;5084916;28;20035;-85
2022/01/23 08:50:00;;;;;;;20.42;13.00;;;;;;;;;;5087530;28;20051;-84
2022/01/23 08:52:25;;;;;;;21.05;13.15;;;;;;;;;;5081348;28;21250;-85
2022/01/23 08:54:56;;;;;;;21.02;12.25;;;;;;;;;;5076632;28;20034;-80
2022/01/23 08:57:26;;;;;;;25.20;14.25;;;;;;;;;;5079249;28;20386;-81
2022/01/23 08:59:51;;;;;;;28.20;16.38;;;;;;;;;;5077335;28;20036;-84
2022/01/23 09:02:25;;;;;;;33.08;17.35;;;;;;;;;;5073316;28;20027;-85
2022/01/23 09:04:56;;;;;;;30.95;16.02;;;;;;;;;;5074413;28;20441;-87
2022/01/23 09:07:39;;;;;;;27.88;17.05;;;;;;;;;;5074403;28;20409;-84
2022/01/23 09:10:05;;;;;;;24.52;14.68;;;;;;;;;;5077115;28;20119;-85
2022/01/23 09:12:56;;;;;;;26.65;16.17;;;;;;;;;;5073123;28;20027;-83
2022/01/23 09:15:22;;;;;;;31.50;17.02;;;;;;;;;;5078948;28;20031;-88
2022/01/23 09:17:52;;;;;;;23.42;13.52;;;;;;;;;;5071029;28;20036;-83
2022/01/23 09:20:20;;;;;;;27.52;16.83;;;;;;;;;;5073921;28;20093;-83
2022/01/23 09:22:48;;;;;;;28.27;15.93;;;;;;;;;;5076833;28;20032;-87
2022/01/23 09:25:16;;;;;;;30.98;17.63;;;;;;;;;;5075505;28;20084;-84
2022/01/23 09:27:41;;;;;;;26.95;16.08;;;;;;;;;;5083420;28;20034;-83
2022/01/23 09:30:17;;;;;;;31.63;17.77;;;;;;;;;;5074791;28;20028;-87
2022/01/23 09:32:46;;;;;;;31.83;17.17;;;;;;;;;;5071437;28;20397;-83
2022/01/23 09:35:14;;;;;;;26.92;16.67;;;;;;;;;;5076612;28;20405;-86
2022/01/23 09:38:04;;;;;;;29.58;16.38;;;;;;;;;;5091959;28;20035;-87
2022/01/23 09:40:35;;;;;;;29.05;16.15;;;;;;;;;;5093234;28;20039;-85
2022/01/23 09:43:06;;;;;;;30.92;17.20;;;;;;;;;;5077661;28;20028;-87
2022/01/23 09:45:33;;;;;;;30.00;17.25;;;;;;;;;;5073764;28;20054;-88
2022/01/23 09:48:01;;;;;;;32.53;17.30;;;;;;;;;;5072214;28;20020;-83
2022/01/23 09:50:33;;;;;;;28.45;17.05;;;;;;;;;;5077580;28;20126;-80
2022/01/23 09:53:04;;;;;;;29.97;17.50;;;;;;;;;;5076397;28;20557;-87
2022/01/23 09:55:32;;;;;;;29.60;16.42;;;;;;;;;;5076764;28;20272;-83
2022/01/23 09:57:59;;;;;;;29.17;16.00;;;;;;;;;;5073455;28;20114;-81
2022/01/23 10:00:28;;;;;;;30.02;16.52;;;;;;;;;;5075555;28;20082;-82
2022/01/23 10:02:54;;;;;;;29.75;17.38;;;;;;;;;;5084263;28;20036;-87
2022/01/23 10:05:20;;;;;;;31.70;17.08;;;;;;;;;;5082579;28;20028;-82
2022/01/23 10:07:46;;;;;;;28.38;15.88;;;;;;;;;;5083700;28;20020;-81
2022/01/23 10:10:20;;;;;;;31.88;17.83;;;;;;;;;;5084045;28;20039;-86
2022/01/23 10:12:55;;;;;;;32.40;17.30;;;;;;;;;;5081369;28;20039;-85
2022/01/23 10:15:21;;;;;;;30.58;16.95;;;;;;;;;;5080674;28;20632;-86
2022/01/23 10:17:52;;;;;;;31.38;17.27;;;;;;;;;;5080875;28;20097;-87
2022/01/23 10:20:26;;;;;;;35.47;17.70;;;;;;;;;;5095403;28;20024;-87
2022/01/23 10:22:54;;;;;;;31.48;18.08;;;;;;;;;;5073622;28;20061;-86
2022/01/23 10:25:25;;;;;;;30.67;16.67;;;;;;;;;;5080585;28;20035;-87
2022/01/23 10:28:13;;;;;;;31.88;17.23;;;;;;;;;;5082078;28;20067;-84
2022/01/23 10:30:46;;;;;;;29.65;17.05;;;;;;;;;;5083751;28;20039;-86
2022/01/23 10:33:18;;;;;;;36.20;18.25;;;;;;;;;;5075595;28;20405;-85
2022/01/23 10:36:11;;;;;;;35.67;19.27;;;;;;;;;;5080343;28;20034;-84
2022/01/23 10:38:47;;;;;;;32.30;18.67;;;;;;;;;;5082976;28;20119;-82
2022/01/23 10:49:51;;;;;;;31.88;18.23;;;;;;;;;;5105902;28;20023;-85
2022/01/23 10:52:39;;;;;;;33.92;19.45;;;;;;;;;;5084542;28;20437;-86
2022/01/23 10:55:17;;;;;;;33.72;19.02;;;;;;;;;;5085159;28;20111;-82
2022/01/23 10:57:45;;;;;;;32.28;18.02;;;;;;;;;;5084199;28;20561;-80
2022/01/23 11:00:21;;;;;;;33.35;19.73;;;;;;;;;;5084415;28;20042;-87
2022/01/23 11:02:47;;;;;;;29.90;16.40;;;;;;;;;;5083538;28;20371;-81
2022/01/23 11:05:15;;;;;;;29.85;16.63;;;;;;;;;;5088127;28;20035;-83
2022/01/23 11:07:43;;;;;;;30.40;17.45;;;;;;;;;;5085702;28;20420;-85
2022/01/23 11:10:13;;;;;;;27.08;15.65;;;;;;;;;;5086260;28;20027;-84
2022/01/23 11:18:11;;;;;;;27.42;15.05;;;;;;;;;;5111179;27;20039;-82
2022/01/23 11:20:47;;;;;;;28.13;13.77;;;;;;;;;;5082633;28;20039;-81
2022/01/23 11:23:16;;;;;;;27.38;14.27;;;;;;;;;;5083998;27;20039;-81
2022/01/23 11:26:07;;;;;;;26.02;14.45;;;;;;;;;;5099438;27;20510;-85
2022/01/23 11:28:42;;;;;;;24.85;13.32;;;;;;;;;;5099651;27;20027;-81
2022/01/23 11:31:11;;;;;;;23.15;12.75;;;;;;;;;;5084360;28;20043;-87
2022/01/23 11:33:45;;;;;;;22.60;12.25;;;;;;;;;;5082108;28;20421;-87
2022/01/23 11:36:14;;;;;;;24.00;13.25;;;;;;;;;;5088870;28;20039;-84
2022/01/23 11:39:06;;;;;;;25.90;13.23;;;;;;;;;;5087662;28;20028;-83
2022/01/23 11:56:27;;;;;;;18.63;10.55;;;;;;;;;;5100919;28;20036;-86
2022/01/23 11:59:19;;;;;;;22.30;10.95;;;;;;;;;;5086205;28;20039;-82
2022/01/23 12:01:47;;;;;;;21.50;10.90;;;;;;;;;;5103992;28;20060;-80
2022/01/23 12:04:21;;;;;;;16.60;9.98;;;;;;;;;;5091244;28;20039;-79
2022/01/23 12:07:16;;;;;;;17.63;9.02;;;;;;;;;;5094583;28;20023;-86
2022/01/23 12:10:03;;;;;;;17.98;9.98;;;;;;;;;;5102451;28;20034;-86
2022/01/23 12:12:38;;;;;;;18.23;10.68;;;;;;;;;;5104178;28;20016;-86
2022/01/23 12:18:16;;;;;;;18.92;10.68;;;;;;;;;;5106640;28;20026;-85
2022/01/23 12:20:44;;;;;;;16.75;9.68;;;;;;;;;;5084868;28;20436;-87
2022/01/23 12:23:11;;;;;;;16.13;9.07;;;;;;;;;;5083515;28;20032;-80
2022/01/23 12:25:55;;;;;;;22.92;11.45;;;;;;;;;;5085137;28;20027;-83
2022/01/23 12:28:24;;;;;;;18.75;10.65;;;;;;;;;;5086277;28;20058;-82
2022/01/23 12:30:55;;;;;;;18.40;10.15;;;;;;;;;;5096865;27;20035;-83
2022/01/23 12:33:23;;;;;;;15.73;9.23;;;;;;;;;;5083978;28;20051;-79
2022/01/23 12:35:55;;;;;;;14.57;8.60;;;;;;;;;;5103066;27;20504;-80
2022/01/23 12:38:33;;;;;;;14.38;8.43;;;;;;;;;;5087198;28;20035;-79
2022/01/23 12:41:27;;;;;;;16.00;9.63;;;;;;;;;;5085261;28;20473;-83
2022/01/23 12:44:05;;;;;;;15.57;8.82;;;;;;;;;;5079987;28;20028;-80
2022/01/23 12:46:38;;;;;;;15.98;9.50;;;;;;;;;;5086149;28;20071;-82
2022/01/23 12:49:20;;;;;;;16.70;9.85;;;;;;;;;;5086502;28;20027;-88
2022/01/23 12:52:10;;;;;;;18.02;10.57;;;;;;;;;;5086173;28;20023;-79
2022/01/23 12:55:03;;;;;;;16.83;9.82;;;;;;;;;;5084394;28;22713;-86
2022/01/23 12:57:40;;;;;;;16.35;9.40;;;;;;;;;;5102795;28;20042;-86
2022/01/23 13:00:12;;;;;;;15.85;9.18;;;;;;;;;;5106570;28;20023;-81
2022/01/23 13:02:46;;;;;;;16.30;9.07;;;;;;;;;;5082695;28;20028;-87
2022/01/23 13:05:14;;;;;;;16.55;9.85;;;;;;;;;;5086431;28;20277;-87
2022/01/23 13:08:07;;;;;;;16.48;9.43;;;;;;;;;;5081705;28;20055;-88
2022/01/23 13:13:57;;;;;;;20.17;10.40;;;;;;;;;;5102091;28;20267;-82
2022/01/23 13:29:53;;;;;;;17.35;10.23;;;;;;;;;;5098464;28;20019;-85
2022/01/23 13:32:43;;;;;;;15.25;10.02;;;;;;;;;;5084309;28;20028;-86
2022/01/23 13:35:13;;;;;;;17.58;9.80;;;;;;;;;;5073985;28;20040;-86
2022/01/23 13:37:45;;;;;;;18.40;9.60;;;;;;;;;;5077524;28;20032;-80
2022/01/23 13:40:24;;;;;;;16.45;9.55;;;;;;;;;;5078025;28;20029;-83
2022/01/23 13:49:49;;;;;;;17.65;9.73;;;;;;;;;;5077465;28;20035;-88
2022/01/23 13:51:54;;;;;;;18.95;10.57;;;;;;;;;;5077707;28;20032;-82
2022/01/23 13:59:56;;;;;;;13.30;7.93;;;;;;;;;;5087580;28;20115;-80
2022/01/23 14:02:26;;;;;;;14.98;8.38;;;;;;;;;;5080686;28;20043;-82
2022/01/23 14:05:11;;;;;;;14.38;8.00;;;;;;;;;;5080660;28;20020;-79
2022/01/23 14:07:50;;;;;;;14.98;8.63;;;;;;;;;;5079895;28;20020;-87
2022/01/23 14:10:27;;;;;;;13.73;7.88;;;;;;;;;;5075226;28;20032;-86
2022/01/23 14:13:47;;;;;;;13.88;8.13;;;;;;;;;;5064875;28;20028;-81
2022/01/23 14:17:04;;;;;;;14.32;8.00;;;;;;;;;;5056295;28;20076;-80
2022/01/23 14:20:23;;;;;;;16.08;8.50;;;;;;;;;;5015285;28;20038;-83
2022/01/23 14:23:10;;;;;;;;;;;;;;;;;;;;;
2022/01/23 14:26:03;;;;;;;;;;;;;;;;;;;;;
2022/01/23 14:28:56;;;;;;;16.70;9.73;;;;;;;;;;5080752;28;20758;-86
2022/01/23 14:32:18;;;;;;;;;;;;;;;;;;;;;
2022/01/23 14:38:27;;;;;;;18.38;10.00;;;;;;;;;;5084439;28;20122;-86
2022/01/23 14:41:08;;;;;;;16.95;10.35;;;;;;;;;;5086779;27;20426;-88
2022/01/23 14:44:46;;;;;;;;;;;;;;;;;;;;;
2022/01/23 14:46:52;;;;;;;15.68;9.55;;;;;;;;;;5089392;28;20031;-80
2022/01/23 14:49:46;;;;;;;16.75;9.65;;;;;;;;;;5081394;28;20031;-82
2022/01/23 14:56:01;;;;;;;;;;;;;;;;;;;;;
2022/01/23 14:58:53;;;;;;;15.60;8.90;;;;;;;;;;5104559;28;20054;-89
2022/01/23 15:01:37;;;;;;;;;;;;;;;;;;;;;
2022/01/23 15:08:13;;;;;;;19.50;10.07;;;;;;;;;;5049741;28;20033;-86
2022/01/23 15:11:04;;;;;;;19.02;10.30;;;;;;;;;;5087507;28;20536;-86
2022/01/23 15:13:33;;;;;;;18.38;10.73;;;;;;;;;;5082137;28;20036;-83
2022/01/23 15:16:03;;;;;;;19.10;11.30;;;;;;;;;;5086837;28;20031;-83
2022/01/23 15:19:14;;;;;;;21.52;12.60;;;;;;;;;;5084110;28;20478;-83
2022/01/23 15:22:27;;;;;;;31.25;18.15;;;;;;;;;;4966397;28;20104;-85
2022/01/23 15:25:27;;;;;;;26.33;15.63;;;;;;;;;;5063130;28;20100;-84
2022/01/23 15:28:22;;;;;;;28.23;17.40;;;;;;;;;;5081556;28;20351;-87
2022/01/23 15:31:41;;;;;;;26.48;15.90;;;;;;;;;;5089185;28;20502;-87
2022/01/23 15:34:27;;;;;;;22.55;13.85;;;;;;;;;;5045855;28;22146;-85
2022/01/23 15:37:02;;;;;;;27.48;14.27;;;;;;;;;;5070945;28;20070;-84
2022/01/23 15:42:49;;;;;;;36.85;22.08;;;;;;;;;;5066062;28;20042;-86
2022/01/23 15:48:30;;;;;;;28.17;16.98;;;;;;;;;;5083947;28;20043;-87
2022/01/23 15:51:02;;;;;;;27.38;16.35;;;;;;;;;;5080843;28;20557;-82
2022/01/23 15:53:30;;;;;;;32.60;16.25;;;;;;;;;;5075825;28;20056;-85
2022/01/23 15:55:59;;;;;;;27.52;16.15;;;;;;;;;;5074286;28;20031;-83
2022/01/23 15:58:27;;;;;;;28.45;16.92;;;;;;;;;;5074528;28;20564;-85
2022/01/23 16:00:58;;;;;;;27.60;17.67;;;;;;;;;;5074027;28;20119;-79
2022/01/23 16:03:33;;;;;;;29.27;16.95;;;;;;;;;;5076391;28;20660;-82
2022/01/23 16:06:04;;;;;;;25.00;15.77;;;;;;;;;;5081119;28;20028;-88
2022/01/23 16:08:38;;;;;;;26.55;14.85;;;;;;;;;;5078398;28;20032;-86
2022/01/23 16:11:07;;;;;;;26.60;14.20;;;;;;;;;;5076688;28;20036;-82
2022/01/23 16:13:37;;;;;;;26.63;13.95;;;;;;;;;;5077501;28;20040;-81
2022/01/23 16:16:08;;;;;;;25.73;15.15;;;;;;;;;;5082954;28;20059;-82
2022/01/23 16:18:36;;;;;;;28.92;15.10;;;;;;;;;;5075576;28;20029;-86
2022/01/23 16:21:09;;;;;;;29.98;15.60;;;;;;;;;;5075538;28;20032;-87
2022/01/23 16:23:34;;;;;;;;;;;;;;;;;;5076903;28;20127;-81
2022/01/23 16:26:00;;;;;;;28.73;15.90;;;;;;;;;;5079508;28;20056;-82
2022/01/23 16:28:25;;;;;;;28.33;16.20;;;;;;;;;;5071490;28;20031;-84
2022/01/23 16:30:54;;;;;;;31.85;16.02;;;;;;;;;;5068692;28;20035;-83
2022/01/23 16:33:23;;;;;;;26.90;16.08;;;;;;;;;;5072195;28;20081;-84
2022/01/23 16:35:49;;;;;;;32.47;16.98;;;;;;;;;;5077398;28;20122;-85
2022/01/23 16:38:15;;;;;;;31.70;16.60;;;;;;;;;;5077477;28;20161;-82
2022/01/23 16:40:44;;;;;;;30.80;16.65;;;;;;;;;;5078943;28;20031;-87
2022/01/23 16:43:10;;;;;;;32.17;17.75;;;;;;;;;;5096642;28;20550;-85
2022/01/23 16:45:36;;;;;;;31.70;17.00;;;;;;;;;;5076985;28;20061;-80
2022/01/23 16:48:03;;;;;;;32.00;18.25;;;;;;;;;;5084140;28;20036;-87
2022/01/23 16:50:29;;;;;;;32.65;17.52;;;;;;;;;;5095502;28;20031;-84
2022/01/23 16:52:58;;;;;;;40.08;18.38;;;;;;;;;;5081208;28;20035;-85
2022/01/23 16:55:24;;;;;;;33.75;16.58;;;;;;;;;;5080955;28;20024;-86
2022/01/23 16:57:49;;;;;;;33.75;17.80;;;;;;;;;;5083784;28;20023;-82
2022/01/23 17:00:16;;;;;;;33.55;17.30;;;;;;;;;;5085767;28;20161;-85
2022/01/23 17:02:42;;;;;;;34.50;17.17;;;;;;;;;;5079708;28;20019;-85
2022/01/23 17:05:17;;;;;;;33.25;17.27;;;;;;;;;;5078837;28;20051;-86
2022/01/23 17:07:43;;;;;;;35.63;17.52;;;;;;;;;;5072874;28;20112;-81
2022/01/23 17:10:09;;;;;;;33.63;18.27;;;;;;;;;;5083618;28;20117;-82
2022/01/23 17:12:34;;;;;;;33.83;18.48;;;;;;;;;;5097711;28;20024;-83
2022/01/23 17:15:00;;;;;;;35.45;17.92;;;;;;;;;;5077897;28;20023;-81
2022/01/23 17:17:26;;;;;;;31.63;18.20;;;;;;;;;;5084973;28;20039;-84
2022/01/23 17:19:52;;;;;;;33.15;18.23;;;;;;;;;;5084239;28;20032;-85
2022/01/23 17:22:20;;;;;;;31.52;18.00;;;;;;;;;;5080522;28;20109;-87
2022/01/23 17:24:45;;;;;;;32.15;19.17;;;;;;;;;;5082119;28;20031;-87
2022/01/23 17:27:14;;;;;;;36.80;18.92;;;;;;;;;;5081289;28;20028;-81
2022/01/23 17:29:39;;;;;;;36.53;18.92;;;;;;;;;;5088803;28;20026;-85
2022/01/23 17:32:09;;;;;;;32.88;18.60;;;;;;;;;;5080791;28;20031;-80
2022/01/23 17:34:39;;;;;;;33.25;18.63;;;;;;;;;;5073708;28;20048;-85
2022/01/23 17:37:08;;;;;;;35.20;19.00;;;;;;;;;;5074326;28;20032;-84
2022/01/23 17:39:33;;;;;;;32.50;17.65;;;;;;;;;;5079260;28;20048;-79
2022/01/23 17:42:01;;;;;;;34.70;18.27;;;;;;;;;;5072069;28;20818;-86
2022/01/23 17:44:28;;;;;;;35.85;19.38;;;;;;;;;;5073944;28;20090;-87
2022/01/23 17:47:18;;;;;;;35.35;19.73;;;;;;;;;;5073096;28;20721;-86
2022/01/23 17:49:57;;;;;;;34.13;18.50;;;;;;;;;;5076766;28;20612;-87
2022/01/23 17:52:25;;;;;;;35.20;18.77;;;;;;;;;;5070014;28;20017;-80
2022/01/23 17:54:51;;;;;;;37.70;20.05;;;;;;;;;;5075887;28;20020;-84
2022/01/23 17:57:17;;;;;;;35.22;19.27;;;;;;;;;;5074501;28;20024;-85
2022/01/23 17:59:43;;;;;;;36.75;18.25;;;;;;;;;;5081744;28;20057;-81
2022/01/23 18:02:13;;;;;;;31.85;18.20;;;;;;;;;;5081300;28;20024;-83
2022/01/23 18:04:42;;;;;;;32.03;18.08;;;;;;;;;;5073193;28;20073;-82
2022/01/23 18:07:09;;;;;;;31.40;18.02;;;;;;;;;;5081926;28;20031;-87
2022/01/23 18:09:35;;;;;;;33.70;18.92;;;;;;;;;;5079851;28;20028;-85
2022/01/23 18:12:04;;;;;;;36.50;20.35;;;;;;;;;;5062901;28;21215;-80
2022/01/23 18:14:30;;;;;;;36.25;20.00;;;;;;;;;;5078872;28;20403;-85
2022/01/23 18:16:56;;;;;;;36.60;20.58;;;;;;;;;;5074879;28;20032;-87
2022/01/23 18:19:21;;;;;;;34.55;19.85;;;;;;;;;;5077563;28;20039;-87
2022/01/23 18:21:49;;;;;;;38.83;21.42;;;;;;;;;;5080630;28;20170;-79
2022/01/23 18:24:14;;;;;;;38.30;21.02;;;;;;;;;;5083209;28;20461;-85
2022/01/23 18:26:41;;;;;;;36.75;21.30;;;;;;;;;;5079081;28;20077;-83
2022/01/23 18:29:09;;;;;;;38.22;21.30;;;;;;;;;;5079707;28;20377;-79
2022/01/23 18:31:35;;;;;;;40.05;21.65;;;;;;;;;;5077772;28;20031;-80
2022/01/23 18:34:03;;;;;;;37.65;21.42;;;;;;;;;;5092060;28;20039;-87